Time;durP1;ratioP1;P1;durP2;ratioP2;P2;SDS_P1;SDS_P2;PMS_P1;PMS_P2;Temp;Humidity;BMP_temperature;BMP_pressure;BME280_temperature;BME280_humidity;BME280_pressure;Samples;Min_cycle;Max_cycle;Signal;HPM_P1;HPM_P2
2021/12/06 00:02:12;;;;;;;24.67;9.85;;;;;;;-149.78;100.00;50577.06;5029996;28;20037;-68
2021/12/06 00:04:39;;;;;;;21.08;9.88;;;;;;;-149.78;100.00;50584.88;5031584;28;20026;-68
2021/12/06 00:07:14;;;;;;;30.25;11.43;;;;;;;-149.78;100.00;50602.47;5032481;28;20025;-68
2021/12/06 00:09:42;;;;;;;26.08;11.50;;;;;;;-149.78;100.00;50588.78;5031104;28;20051;-68
2021/12/06 00:12:08;;;;;;;32.60;12.80;;;;;;;-149.78;100.00;50573.16;5032487;28;20079;-68
2021/12/06 00:14:39;;;;;;;35.13;12.05;;;;;;;-149.78;100.00;50596.63;5032491;28;20424;-68
2021/12/06 00:17:08;;;;;;;23.38;10.25;;;;;;;-149.78;100.00;50549.69;5020056;28;20432;-68
2021/12/06 00:19:34;;;;;;;22.65;9.93;;;;;;;-149.78;100.00;50573.16;5029429;28;20037;-68
2021/12/06 00:22:02;;;;;;;26.73;9.65;;;;;;;-149.78;100.00;50577.06;5029229;28;20569;-68
2021/12/06 00:24:28;;;;;;;23.02;8.40;;;;;;;-149.78;100.00;50575.09;5027780;28;20094;-67
2021/12/06 00:26:54;;;;;;;23.73;8.50;;;;;;;-149.78;100.00;50608.34;5032065;28;20473;-68
2021/12/06 00:29:22;;;;;;;19.00;7.75;;;;;;;-149.78;100.00;50588.78;5026347;28;20101;-68
2021/12/06 00:31:48;;;;;;;18.27;7.47;;;;;;;-149.78;100.00;50612.25;5025961;28;20037;-68
2021/12/06 00:34:17;;;;;;;20.00;7.70;;;;;;;-149.78;100.00;50557.50;5030352;28;20034;-68
2021/12/06 00:36:53;;;;;;;25.55;9.27;;;;;;;-149.78;100.00;50618.13;5021891;28;20156;-68
2021/12/06 00:39:21;;;;;;;19.27;6.43;;;;;;;-149.78;100.00;50606.41;5031426;28;20033;-68
2021/12/06 00:41:47;;;;;;;15.85;7.65;;;;;;;-149.78;100.00;50608.34;5031502;28;20064;-67
2021/12/06 00:44:13;;;;;;;14.48;6.18;;;;;;;-149.78;100.00;50565.31;5030735;28;20056;-68
2021/12/06 00:46:39;;;;;;;18.55;6.30;;;;;;;-149.78;100.00;50596.63;5031330;28;20029;-68
2021/12/06 00:49:07;;;;;;;16.92;5.95;;;;;;;-149.78;100.00;50584.88;5017962;28;20088;-68
2021/12/06 00:51:34;;;;;;;19.35;7.03;;;;;;;-149.78;100.00;50563.38;5026930;28;20068;-68
2021/12/06 00:54:00;;;;;;;15.55;6.80;;;;;;;-149.78;100.00;50541.84;5021292;28;20038;-68
2021/12/06 00:56:26;;;;;;;14.23;6.43;;;;;;;-149.78;100.00;50584.88;5022903;28;20033;-68
2021/12/06 00:58:51;;;;;;;14.95;6.40;;;;;;;-149.78;100.00;50580.97;5027066;28;20120;-68
2021/12/06 01:01:17;;;;;;;17.38;6.07;;;;;;;-149.78;100.00;50584.88;5028592;28;20041;-68
2021/12/06 01:03:44;;;;;;;18.23;7.57;;;;;;;-149.78;100.00;50565.31;5031573;28;20025;-68
2021/12/06 01:06:11;;;;;;;22.13;8.55;;;;;;;-149.78;100.00;50608.34;5031622;28;20457;-68
2021/12/06 01:08:38;;;;;;;22.17;10.15;;;;;;;-149.78;100.00;50565.31;5035540;28;20037;-68
2021/12/06 01:11:06;;;;;;;25.70;9.85;;;;;;;-149.78;100.00;50580.97;5035317;28;20064;-68
2021/12/06 01:13:32;;;;;;;17.55;6.00;;;;;;;-149.78;100.00;50579.00;5036133;28;20041;-68
2021/12/06 01:15:59;;;;;;;17.15;6.00;;;;;;;-149.78;100.00;50577.06;5035054;28;20061;-68
2021/12/06 01:18:26;;;;;;;16.05;5.82;;;;;;;-149.78;100.00;50604.44;5034971;28;20036;-68
2021/12/06 01:23:30;;;;;;;14.35;5.57;;;;;;;-149.78;100.00;50631.81;5030586;28;20033;-68
2021/12/06 01:28:58;;;;;;;17.38;4.80;;;;;;;-149.78;100.00;50620.09;5030082;28;20032;-68
2021/12/06 01:31:37;;;;;;;13.45;4.63;;;;;;;-149.78;100.00;50635.72;5026603;28;20044;-68
2021/12/06 01:39:19;;;;;;;12.68;4.38;;;;;;;-149.78;100.00;50579.00;5033175;28;20045;-68
2021/12/06 01:41:57;;;;;;;12.80;3.97;;;;;;;-149.78;100.00;50600.53;5034392;28;20037;-68
2021/12/06 01:44:24;;;;;;;7.40;3.63;;;;;;;-149.78;100.00;50600.53;5034620;28;20029;-68
2021/12/06 01:46:57;;;;;;;12.27;4.03;;;;;;;-149.78;100.00;50584.88;5033107;28;20426;-68
2021/12/06 01:49:26;;;;;;;10.68;3.78;;;;;;;-149.78;100.00;50573.16;5034034;28;20053;-68
2021/12/06 01:51:54;;;;;;;8.00;3.53;;;;;;;-149.78;100.00;50600.53;5031273;28;20366;-68
2021/12/06 01:54:21;;;;;;;9.75;3.88;;;;;;;-149.78;100.00;50612.25;5034114;28;20512;-68
2021/12/06 01:56:49;;;;;;;12.23;3.97;;;;;;;-149.78;100.00;50612.25;5031722;28;20443;-68
2021/12/06 01:59:15;;;;;;;8.10;3.58;;;;;;;-149.78;100.00;50553.59;5030036;28;20511;-68
2021/12/06 02:01:41;;;;;;;9.32;3.40;;;;;;;-149.78;100.00;50600.53;5033863;28;20022;-68
2021/12/06 02:04:08;;;;;;;10.75;4.15;;;;;;;-149.78;100.00;50580.97;5032666;28;20030;-68
2021/12/06 02:06:35;;;;;;;9.75;4.20;;;;;;;-149.78;100.00;50588.78;5032248;28;20057;-68
2021/12/06 02:09:03;;;;;;;15.02;3.78;;;;;;;-149.78;100.00;50608.34;5032686;28;20505;-68
2021/12/06 02:11:34;;;;;;;9.15;3.83;;;;;;;-149.78;100.00;50577.06;5033563;28;20140;-68
2021/12/06 02:14:15;;;;;;;7.05;4.05;;;;;;;-149.78;100.00;50553.59;5031414;28;20040;-68
2021/12/06 02:16:58;;;;;;;14.05;4.35;;;;;;;-149.78;100.00;50588.78;5033411;28;20037;-68
2021/12/06 02:19:31;;;;;;;13.77;4.30;;;;;;;-149.78;100.00;50580.97;5030387;28;20029;-68
2021/12/06 02:21:57;;;;;;;18.63;7.40;;;;;;;-149.78;100.00;50604.44;5031817;28;20124;-68
2021/12/06 02:24:23;;;;;;;15.00;7.18;;;;;;;-149.78;100.00;50592.72;5032189;28;20036;-68
2021/12/06 02:26:51;;;;;;;19.33;7.70;;;;;;;-149.78;100.00;50586.84;5032849;28;20470;-68
2021/12/06 02:29:17;;;;;;;20.27;7.50;;;;;;;-149.78;100.00;50565.31;5032406;28;20039;-68
2021/12/06 02:31:43;;;;;;;26.58;8.63;;;;;;;-149.78;100.00;50573.16;5032085;28;20025;-68
2021/12/06 02:34:08;;;;;;;18.98;7.35;;;;;;;-149.78;100.00;50600.53;5031640;28;20427;-68
2021/12/06 02:36:35;;;;;;;24.45;8.65;;;;;;;-149.78;100.00;50592.72;5032882;28;20397;-68
2021/12/06 02:39:03;;;;;;;26.23;8.27;;;;;;;-149.78;100.00;50584.88;5031699;28;20038;-68
2021/12/06 02:41:30;;;;;;;22.45;8.45;;;;;;;-149.78;100.00;50608.34;5030362;28;20388;-68
2021/12/06 02:43:56;;;;;;;18.85;7.78;;;;;;;-149.78;100.00;50586.84;5033428;28;20112;-68
2021/12/06 02:46:22;;;;;;;23.30;7.07;;;;;;;-149.78;100.00;50600.53;5030684;28;20069;-68
2021/12/06 02:48:48;;;;;;;23.13;7.95;;;;;;;-149.78;100.00;50604.44;5030513;28;20037;-68
2021/12/06 02:51:16;;;;;;;20.60;7.03;;;;;;;-149.78;100.00;50596.63;5032938;28;20087;-68
2021/12/06 02:53:42;;;;;;;19.33;6.50;;;;;;;-149.78;100.00;50588.78;5032338;28;20026;-68
2021/12/06 02:56:31;;;;;;;17.98;6.30;;;;;;;-149.78;100.00;50600.53;5030874;28;20087;-68
2021/12/06 02:58:58;;;;;;;14.68;5.63;;;;;;;-149.78;100.00;50573.16;5025026;28;20374;-68
2021/12/06 03:01:31;;;;;;;15.75;6.00;;;;;;;-149.78;100.00;50608.34;5031355;28;20041;-68
2021/12/06 03:03:58;;;;;;;17.48;6.50;;;;;;;-149.78;100.00;50600.53;5030665;28;20421;-68
2021/12/06 03:06:25;;;;;;;17.20;5.88;;;;;;;-149.78;100.00;50600.53;5031383;28;20562;-68
2021/12/06 03:09:01;;;;;;;20.95;7.32;;;;;;;-149.78;100.00;50612.25;5031861;28;20034;-68
2021/12/06 03:11:35;;;;;;;13.68;5.95;;;;;;;-149.78;100.00;50580.97;5031049;28;20045;-68
2021/12/06 03:14:01;;;;;;;17.50;6.05;;;;;;;-149.78;100.00;50614.22;5027157;28;20026;-68
2021/12/06 03:16:27;;;;;;;15.38;5.90;;;;;;;-149.78;100.00;50592.72;5027071;28;20034;-68
2021/12/06 03:18:54;;;;;;;16.60;5.57;;;;;;;-149.78;100.00;50590.75;5029494;28;20132;-68
2021/12/06 03:21:21;;;;;;;16.23;6.22;;;;;;;-149.78;100.00;50616.19;5021778;28;20042;-68
2021/12/06 03:23:48;;;;;;;16.38;5.63;;;;;;;-149.78;100.00;50596.63;5028145;28;20469;-68
2021/12/06 03:26:14;;;;;;;14.88;4.97;;;;;;;-149.78;100.00;50582.94;5020909;28;20038;-68
2021/12/06 03:28:43;;;;;;;15.13;5.20;;;;;;;-149.78;100.00;50596.63;5031089;28;20036;-68
2021/12/06 03:31:10;;;;;;;16.58;5.78;;;;;;;-149.78;100.00;50620.09;5030542;28;20033;-68
2021/12/06 03:33:39;;;;;;;16.27;6.22;;;;;;;-149.78;100.00;50569.22;5032484;28;20044;-68
2021/12/06 03:36:07;;;;;;;15.48;5.80;;;;;;;-149.78;100.00;50565.31;5029691;28;20029;-68
2021/12/06 03:38:34;;;;;;;15.65;6.13;;;;;;;-149.78;100.00;50627.91;5023947;28;20083;-68
2021/12/06 03:41:00;;;;;;;18.88;6.53;;;;;;;-149.78;100.00;50584.88;5027519;28;20048;-68
2021/12/06 03:43:26;;;;;;;19.02;6.20;;;;;;;-149.78;100.00;50573.16;5027737;28;20034;-68
2021/12/06 03:45:53;;;;;;;19.52;6.80;;;;;;;-149.78;100.00;50612.25;5031923;28;20031;-68
2021/12/06 03:48:18;;;;;;;21.95;7.20;;;;;;;-149.78;100.00;50620.09;5031974;28;20044;-68
2021/12/06 03:50:44;;;;;;;20.17;7.20;;;;;;;-149.78;100.00;50571.19;5024872;28;20029;-68
2021/12/06 03:53:10;;;;;;;17.42;6.65;;;;;;;-149.78;100.00;50622.03;5030438;28;20137;-68
2021/12/06 03:55:36;;;;;;;17.70;6.35;;;;;;;-149.78;100.00;50610.31;5029565;28;20040;-68
2021/12/06 03:58:02;;;;;;;16.30;5.53;;;;;;;-149.78;100.00;50592.72;5030152;28;20033;-68
2021/12/06 04:00:28;;;;;;;15.55;4.97;;;;;;;-149.78;100.00;50622.03;5028949;28;20045;-68
2021/12/06 04:02:55;;;;;;;19.40;5.40;;;;;;;-149.78;100.00;50604.44;5028586;28;20038;-68
2021/12/06 04:05:21;;;;;;;13.43;5.35;;;;;;;-149.78;100.00;50608.34;5026215;28;20031;-68
2021/12/06 04:07:47;;;;;;;15.90;5.35;;;;;;;-149.78;100.00;50592.72;5031303;28;20030;-68
2021/12/06 04:10:13;;;;;;;13.75;5.22;;;;;;;-149.78;100.00;50624.00;5025263;28;20386;-68
2021/12/06 04:12:40;;;;;;;15.13;5.57;;;;;;;-149.78;100.00;50580.97;5028268;28;20056;-68
2021/12/06 04:15:08;;;;;;;13.73;5.07;;;;;;;-149.78;100.00;50553.59;5030997;28;20135;-68
2021/12/06 04:17:35;;;;;;;15.77;5.10;;;;;;;-149.78;100.00;50618.13;5031187;28;20033;-68
2021/12/06 04:20:02;;;;;;;17.55;6.75;;;;;;;-149.78;100.00;50655.28;5032456;28;20037;-68
2021/12/06 04:22:28;;;;;;;18.83;7.18;;;;;;;-149.78;100.00;50573.16;5029846;28;20376;-68
2021/12/06 04:24:54;;;;;;;21.50;5.88;;;;;;;-149.78;100.00;50604.44;5032372;28;20120;-68
2021/12/06 04:27:21;;;;;;;18.75;6.88;;;;;;;-149.78;100.00;50604.44;5031761;28;20049;-68
2021/12/06 04:29:50;;;;;;;16.35;5.55;;;;;;;-149.78;100.00;50612.25;5031120;28;20040;-68
2021/12/06 04:32:17;;;;;;;22.30;6.13;;;;;;;-149.78;100.00;50600.53;5031591;28;20057;-68
2021/12/06 04:34:43;;;;;;;14.07;5.00;;;;;;;-149.78;100.00;50577.06;5034761;28;20373;-68
2021/12/06 04:37:10;;;;;;;14.60;5.22;;;;;;;-149.78;100.00;50604.44;5035758;28;20034;-68
2021/12/06 04:39:37;;;;;;;13.15;5.13;;;;;;;-149.78;100.00;50600.53;5034372;28;20029;-68
2021/12/06 04:42:03;;;;;;;15.43;5.88;;;;;;;-149.78;100.00;50592.72;5034969;28;20029;-68
2021/12/06 04:44:30;;;;;;;14.32;5.18;;;;;;;-149.78;100.00;50588.78;5034537;28;20041;-68
2021/12/06 04:46:56;;;;;;;19.42;6.40;;;;;;;-149.78;100.00;50600.53;5034381;28;20034;-68
2021/12/06 04:49:25;;;;;;;12.50;5.70;;;;;;;-149.78;100.00;50600.53;5034023;28;20068;-68
2021/12/06 04:51:53;;;;;;;20.85;6.63;;;;;;;-149.78;100.00;50610.31;5034709;28;20069;-68
2021/12/06 04:54:22;;;;;;;17.02;6.80;;;;;;;-149.78;100.00;50592.72;5036015;28;20037;-68
2021/12/06 04:56:57;;;;;;;17.75;6.65;;;;;;;-149.78;100.00;50580.97;5035862;28;20029;-68
2021/12/06 04:59:44;;;;;;;18.67;6.80;;;;;;;-149.78;100.00;50577.06;5035478;28;20029;-68
2021/12/06 05:02:33;;;;;;;22.25;8.13;;;;;;;-149.78;100.00;50610.31;5024313;28;20400;-68
2021/12/06 05:05:02;;;;;;;28.45;7.90;;;;;;;-149.78;100.00;50580.97;5032865;28;20135;-68
2021/12/06 05:07:35;;;;;;;24.30;7.38;;;;;;;-149.78;100.00;50612.25;5031400;28;20116;-68
2021/12/06 05:10:04;;;;;;;25.23;8.30;;;;;;;-149.78;100.00;50573.16;5033625;28;20045;-68
2021/12/06 05:12:31;;;;;;;25.38;8.38;;;;;;;-149.78;100.00;50604.44;5028195;28;20088;-68
2021/12/06 05:14:58;;;;;;;28.67;8.57;;;;;;;-149.78;100.00;50577.06;5029286;28;20037;-68
2021/12/06 05:17:24;;;;;;;19.88;7.82;;;;;;;-149.78;100.00;50584.88;5024777;28;20124;-68
2021/12/06 05:19:50;;;;;;;24.88;8.30;;;;;;;-149.78;100.00;50620.09;5033723;28;20025;-68
2021/12/06 05:22:15;;;;;;;26.35;8.75;;;;;;;-149.78;100.00;50561.41;5031568;28;20389;-68
2021/12/06 05:24:41;;;;;;;24.67;8.60;;;;;;;-149.78;100.00;50580.97;5035668;28;20037;-68
2021/12/06 05:27:07;;;;;;;23.50;8.38;;;;;;;-149.78;100.00;50565.31;5032631;28;20064;-68
2021/12/06 05:29:34;;;;;;;23.65;8.52;;;;;;;-149.78;100.00;50608.34;5035133;28;20037;-68
2021/12/06 05:32:00;;;;;;;24.83;9.50;;;;;;;-149.78;100.00;50606.41;5032750;28;20065;-68
2021/12/06 05:34:35;;;;;;;26.95;8.52;;;;;;;-149.78;100.00;50606.41;5027339;28;20350;-68
2021/12/06 05:37:01;;;;;;;20.77;8.32;;;;;;;-149.78;100.00;50604.44;5035195;28;20061;-68
2021/12/06 05:39:31;;;;;;;22.75;8.27;;;;;;;-149.78;100.00;50580.97;5031736;28;20449;-68
2021/12/06 05:42:15;;;;;;;22.27;8.40;;;;;;;-149.78;100.00;50577.06;5031850;28;20147;-68
2021/12/06 05:44:41;;;;;;;21.67;8.18;;;;;;;-149.78;100.00;50580.97;5033915;28;20393;-68
2021/12/06 05:47:07;;;;;;;25.80;9.27;;;;;;;-149.78;100.00;50596.63;5034939;28;20426;-67
2021/12/06 05:49:33;;;;;;;28.00;9.65;;;;;;;-149.78;100.00;50606.41;5034748;28;20094;-68
2021/12/06 05:51:59;;;;;;;22.55;8.82;;;;;;;-149.78;100.00;50588.78;5032296;28;20061;-69
2021/12/06 05:54:25;;;;;;;29.90;9.48;;;;;;;-149.78;100.00;50571.19;5033871;28;20119;-68
2021/12/06 05:56:54;;;;;;;26.10;9.93;;;;;;;-149.78;100.00;50620.09;5034218;28;20471;-68
2021/12/06 05:59:20;;;;;;;26.75;9.73;;;;;;;-149.78;100.00;50586.84;5032333;28;20166;-67
2021/12/06 06:01:48;;;;;;;28.55;9.35;;;;;;;-149.78;100.00;50588.78;5032501;28;20427;-68
2021/12/06 06:04:16;;;;;;;27.67;10.40;;;;;;;-149.78;100.00;50618.13;5034406;28;20113;-68
2021/12/06 06:06:42;;;;;;;33.08;10.50;;;;;;;-149.78;100.00;50610.31;5032107;28;20025;-68
2021/12/06 06:09:08;;;;;;;33.90;10.70;;;;;;;-149.78;100.00;50614.22;5034746;28;20044;-67
2021/12/06 06:11:35;;;;;;;30.08;11.73;;;;;;;-149.78;100.00;50596.63;5032841;28;20054;-68
2021/12/06 06:14:05;;;;;;;33.42;10.32;;;;;;;-149.78;100.00;50612.25;5033078;28;20033;-68
2021/12/06 06:16:32;;;;;;;30.83;11.38;;;;;;;-149.78;100.00;50612.25;5028532;28;20044;-68
2021/12/06 06:18:57;;;;;;;30.60;11.18;;;;;;;-149.78;100.00;50596.63;5030325;28;20060;-68
2021/12/06 06:21:24;;;;;;;31.25;10.48;;;;;;;-149.78;100.00;50620.09;5032717;28;20538;-68
2021/12/06 06:23:51;;;;;;;35.35;10.75;;;;;;;-149.78;100.00;50577.06;5032345;28;20853;-68
2021/12/06 06:26:17;;;;;;;31.63;11.43;;;;;;;-149.78;100.00;50620.09;5031737;28;20053;-69
2021/12/06 06:28:43;;;;;;;29.05;11.07;;;;;;;-149.78;100.00;50608.34;5031440;28;20061;-68
2021/12/06 06:31:08;;;;;;;27.50;11.02;;;;;;;-149.78;100.00;50588.78;5033272;28;20083;-68
2021/12/06 06:33:36;;;;;;;29.05;10.98;;;;;;;-149.78;100.00;50604.44;5034379;28;20041;-68
2021/12/06 06:36:01;;;;;;;28.20;10.93;;;;;;;-149.78;100.00;50577.06;5033293;28;20041;-67
2021/12/06 06:38:27;;;;;;;30.80;11.80;;;;;;;-149.78;100.00;50624.00;5034630;28;20037;-68
2021/12/06 06:40:53;;;;;;;27.55;10.68;;;;;;;-149.78;100.00;50573.16;5033563;28;20038;-67
2021/12/06 06:43:19;;;;;;;34.33;11.20;;;;;;;-149.78;100.00;50592.72;5033517;28;20033;-68
2021/12/06 06:45:45;;;;;;;31.88;11.50;;;;;;;-149.78;100.00;50624.00;5033640;28;20137;-68
2021/12/06 06:48:11;;;;;;;30.13;11.10;;;;;;;-149.78;100.00;50553.59;5025861;28;20037;-68
2021/12/06 06:50:38;;;;;;;31.35;11.45;;;;;;;-149.78;100.00;50598.56;5027356;28;20034;-68
2021/12/06 06:53:04;;;;;;;27.75;10.48;;;;;;;-149.78;100.00;50571.19;5033290;28;20427;-67
2021/12/06 06:55:31;;;;;;;36.33;12.45;;;;;;;-149.78;100.00;50592.72;5029919;28;20079;-68
2021/12/06 06:57:57;;;;;;;32.55;11.52;;;;;;;-149.78;100.00;50600.53;5032962;28;20508;-68
2021/12/06 07:00:29;;;;;;;35.88;12.32;;;;;;;-149.78;100.00;50551.63;5045269;28;20073;-68
2021/12/06 07:02:56;;;;;;;27.17;10.75;;;;;;;-149.78;100.00;50573.16;5032159;28;20087;-68
2021/12/06 07:05:23;;;;;;;30.17;10.55;;;;;;;-149.78;100.00;50616.19;5032968;28;20116;-68
2021/12/06 07:07:49;;;;;;;28.98;11.27;;;;;;;-149.78;100.00;50624.00;5032078;28;20025;-67
2021/12/06 07:10:14;;;;;;;27.13;10.50;;;;;;;-149.78;100.00;50580.97;5029564;28;20049;-68
2021/12/06 07:12:47;;;;;;;34.72;11.07;;;;;;;-149.78;100.00;50610.31;5030772;28;20029;-67
2021/12/06 07:15:17;;;;;;;29.23;10.65;;;;;;;-149.78;100.00;50612.25;5029735;28;20092;-67
2021/12/06 07:17:44;;;;;;;35.35;11.02;;;;;;;-149.78;100.00;50565.31;5030909;28;20037;-67
2021/12/06 07:20:12;;;;;;;29.67;10.65;;;;;;;-149.78;100.00;50580.97;5031314;28;20029;-67
2021/12/06 07:22:38;;;;;;;31.48;11.52;;;;;;;-149.78;100.00;50563.38;5031968;28;20040;-67
2021/12/06 07:25:06;;;;;;;31.52;11.52;;;;;;;-149.78;100.00;50643.56;5032162;28;20032;-67
2021/12/06 07:27:32;;;;;;;26.30;11.13;;;;;;;-149.78;100.00;50573.16;5032179;28;20030;-68
2021/12/06 07:29:58;;;;;;;27.15;10.63;;;;;;;-149.78;100.00;50584.88;5025328;28;20137;-67
2021/12/06 07:32:24;;;;;;;28.02;10.55;;;;;;;-149.78;100.00;50580.97;5028539;28;20037;-66
2021/12/06 07:34:51;;;;;;;25.58;8.77;;;;;;;-149.78;100.00;50580.97;5023071;28;20033;-67
2021/12/06 07:37:17;;;;;;;21.02;8.23;;;;;;;-149.78;100.00;50588.78;5023967;28;20400;-66
2021/12/06 07:39:43;;;;;;;23.02;8.93;;;;;;;-149.78;100.00;50616.19;5023853;28;20033;-65
2021/12/06 07:42:12;;;;;;;19.50;8.05;;;;;;;-149.78;100.00;50561.41;5029112;28;20120;-66
2021/12/06 07:44:42;;;;;;;18.90;7.53;;;;;;;-149.78;100.00;50573.16;5026200;28;20033;-66
2021/12/06 07:47:11;;;;;;;21.60;7.95;;;;;;;-149.78;100.00;50598.56;5030609;28;20116;-66
2021/12/06 07:49:37;;;;;;;20.95;6.97;;;;;;;-149.78;100.00;50616.19;5030668;28;20040;-66
2021/12/06 07:52:06;;;;;;;22.40;7.55;;;;;;;-149.78;100.00;50596.63;5030140;28;20029;-65
2021/12/06 07:54:33;;;;;;;18.52;7.00;;;;;;;-149.78;100.00;50573.16;5029943;28;20072;-66
2021/12/06 07:56:59;;;;;;;18.67;7.00;;;;;;;-149.78;100.00;50608.34;5030437;28;20037;-66
2021/12/06 07:59:26;;;;;;;19.85;7.97;;;;;;;-149.78;100.00;50608.34;5030970;28;20416;-64
2021/12/06 08:01:51;;;;;;;18.33;6.28;;;;;;;-149.78;100.00;50584.88;5032419;28;20029;-65
2021/12/06 08:04:18;;;;;;;16.25;6.88;;;;;;;-149.78;100.00;50557.50;5030017;28;20056;-63
2021/12/06 08:06:44;;;;;;;19.38;7.10;;;;;;;-149.78;100.00;50600.53;5030680;28;20397;-66
2021/12/06 08:09:10;;;;;;;19.13;7.35;;;;;;;-149.78;100.00;50577.06;5031191;28;20107;-66
2021/12/06 08:11:36;;;;;;;18.92;7.10;;;;;;;-149.78;100.00;50582.94;5030585;28;20059;-66
2021/12/06 08:14:03;;;;;;;20.20;7.30;;;;;;;-149.78;100.00;50557.50;5026844;28;20041;-66
2021/12/06 08:16:38;;;;;;;17.10;7.38;;;;;;;-149.78;100.00;50592.72;5029964;28;20570;-66
2021/12/06 08:19:04;;;;;;;17.15;6.50;;;;;;;-149.78;100.00;50592.72;5030150;28;20065;-66
2021/12/06 08:21:30;;;;;;;19.92;6.53;;;;;;;-149.78;100.00;50584.88;5031452;28;20465;-67
2021/12/06 08:23:57;;;;;;;15.73;7.25;;;;;;;-149.78;100.00;50616.19;5026172;28;20120;-67
2021/12/06 08:26:29;;;;;;;21.20;7.50;;;;;;;-149.78;100.00;50592.72;5031234;28;20364;-67
2021/12/06 08:28:56;;;;;;;16.63;7.70;;;;;;;-149.78;100.00;50561.41;5026627;28;20376;-67
2021/12/06 08:31:22;;;;;;;18.17;7.07;;;;;;;-149.78;100.00;50602.47;5030461;28;20526;-67
2021/12/06 08:33:49;;;;;;;18.48;7.47;;;;;;;-149.78;100.00;50596.63;5030314;28;20029;-67
2021/12/06 08:36:15;;;;;;;17.80;7.20;;;;;;;-149.78;100.00;50555.53;5028496;28;20034;-67
2021/12/06 08:38:41;;;;;;;20.88;7.65;;;;;;;-149.78;100.00;50600.53;5030105;28;20026;-67
2021/12/06 08:41:11;;;;;;;21.73;7.72;;;;;;;-149.78;100.00;50588.78;5025021;28;20037;-67
2021/12/06 08:43:40;;;;;;;17.88;7.25;;;;;;;-149.78;100.00;50592.72;5025064;28;20037;-67
2021/12/06 08:46:11;;;;;;;21.88;7.22;;;;;;;-149.78;100.00;50577.06;5026014;28;20037;-67
2021/12/06 08:48:39;;;;;;;24.48;7.60;;;;;;;-149.78;100.00;50582.94;5030976;28;20535;-67
2021/12/06 08:51:10;;;;;;;24.60;7.72;;;;;;;-149.78;100.00;50596.63;5020229;28;20481;-66
2021/12/06 08:53:37;;;;;;;24.08;7.10;;;;;;;-149.78;100.00;50608.34;5023745;28;20033;-67
2021/12/06 08:56:03;;;;;;;19.92;7.50;;;;;;;-149.78;100.00;50627.91;5030640;28;20113;-67
2021/12/06 08:58:29;;;;;;;18.60;6.97;;;;;;;-149.78;100.00;50620.09;5029794;28;20037;-67
2021/12/06 09:00:56;;;;;;;16.85;7.05;;;;;;;-149.78;100.00;50596.63;5030107;28;20107;-67
2021/12/06 09:03:22;;;;;;;19.60;7.30;;;;;;;-149.78;100.00;50616.19;5030261;28;20472;-67
2021/12/06 09:05:50;;;;;;;24.10;6.78;;;;;;;-149.78;100.00;50549.69;5028356;28;20477;-67
2021/12/06 09:08:17;;;;;;;19.27;6.65;;;;;;;-149.78;100.00;50555.53;5030714;28;20793;-67
2021/12/06 09:10:47;;;;;;;20.30;6.25;;;;;;;-149.78;100.00;50608.34;5019833;28;20050;-67
2021/12/06 09:13:13;;;;;;;16.40;6.25;;;;;;;-149.78;100.00;50592.72;5031693;28;20037;-67
2021/12/06 09:15:39;;;;;;;17.58;6.43;;;;;;;-149.78;100.00;50551.63;5029836;28;20056;-68
2021/12/06 09:18:05;;;;;;;18.52;6.10;;;;;;;-149.78;100.00;50588.78;5023446;28;20037;-66
2021/12/06 09:20:36;;;;;;;20.35;7.03;;;;;;;-149.78;100.00;50565.31;5032711;28;20037;-67
2021/12/06 09:23:05;;;;;;;18.83;6.40;;;;;;;-149.78;100.00;50577.06;5016455;28;20053;-67
2021/12/06 09:25:32;;;;;;;13.43;5.90;;;;;;;-149.78;100.00;50573.16;5030746;28;20377;-67
2021/12/06 09:27:58;;;;;;;16.33;6.25;;;;;;;-149.78;100.00;50588.78;5032914;28;20042;-67
2021/12/06 09:30:29;;;;;;;16.35;6.53;;;;;;;-149.78;100.00;50582.94;5032857;28;20053;-67
2021/12/06 09:32:57;;;;;;;16.58;6.50;;;;;;;-149.78;100.00;50596.63;5032014;28;20037;-67
2021/12/06 09:35:27;;;;;;;15.95;6.13;;;;;;;-149.78;100.00;50604.44;5032305;28;20037;-67
2021/12/06 09:37:56;;;;;;;18.85;6.63;;;;;;;-149.78;100.00;50561.41;5028502;28;20044;-67
2021/12/06 09:40:24;;;;;;;15.05;6.75;;;;;;;-149.78;100.00;50604.44;5024027;28;20073;-67
2021/12/06 09:42:51;;;;;;;14.35;6.68;;;;;;;-149.78;100.00;50588.78;5033670;28;20033;-68
2021/12/06 09:45:23;;;;;;;16.77;6.85;;;;;;;-149.78;100.00;50573.16;5029236;28;20037;-67
2021/12/06 09:47:51;;;;;;;16.10;6.72;;;;;;;-149.78;100.00;50588.78;5032683;28;20029;-67
2021/12/06 09:50:25;;;;;;;18.15;6.40;;;;;;;-149.78;100.00;50616.19;5023057;28;20122;-67
2021/12/06 09:52:52;;;;;;;15.38;6.07;;;;;;;-149.78;100.00;50600.53;5030152;28;20025;-67
2021/12/06 09:55:19;;;;;;;20.77;6.18;;;;;;;-149.78;100.00;50547.72;5032558;28;20436;-67
2021/12/06 09:57:45;;;;;;;18.90;6.45;;;;;;;-149.78;100.00;50600.53;5028681;28;20037;-67
2021/12/06 10:00:12;;;;;;;17.45;6.40;;;;;;;-149.78;100.00;50602.47;5024791;28;20429;-67
2021/12/06 10:02:38;;;;;;;16.05;6.10;;;;;;;-149.78;100.00;50624.00;5033273;28;20029;-67
2021/12/06 10:05:06;;;;;;;16.85;5.60;;;;;;;-149.78;100.00;50592.72;5029952;28;20111;-67
2021/12/06 10:07:32;;;;;;;14.93;6.25;;;;;;;-149.78;100.00;50584.88;5033067;28;20171;-67
2021/12/06 10:09:59;;;;;;;19.02;6.63;;;;;;;-149.78;100.00;50584.88;5033633;28;20048;-67
2021/12/06 10:12:25;;;;;;;13.70;5.65;;;;;;;-149.78;100.00;50604.44;5033606;28;20030;-67
2021/12/06 10:14:51;;;;;;;14.57;6.07;;;;;;;-149.78;100.00;50573.16;5032762;28;20469;-67
2021/12/06 10:17:18;;;;;;;19.10;6.57;;;;;;;-149.78;100.00;50592.72;5027349;28;20444;-67
2021/12/06 10:19:45;;;;;;;12.32;5.97;;;;;;;-149.78;100.00;50582.94;5030777;28;20033;-67
2021/12/06 10:22:12;;;;;;;11.98;6.15;;;;;;;-149.78;100.00;50600.53;5032777;28;20538;-67
2021/12/06 10:24:38;;;;;;;17.40;6.35;;;;;;;-149.78;100.00;50600.53;5033040;28;20068;-67
2021/12/06 10:27:11;;;;;;;11.70;5.47;;;;;;;-149.78;100.00;50577.06;5032054;28;20033;-67
2021/12/06 10:29:54;;;;;;;12.93;6.22;;;;;;;-149.78;100.00;50586.84;5025542;28;20029;-67
2021/12/06 10:32:25;;;;;;;12.48;5.93;;;;;;;-149.78;100.00;50610.31;5024387;28;20030;-67
2021/12/06 10:35:02;;;;;;;10.13;5.13;;;;;;;-149.78;100.00;50579.00;5033690;28;20361;-67
2021/12/06 10:37:46;;;;;;;12.23;5.90;;;;;;;-149.78;100.00;50580.97;5033084;28;20029;-67
2021/12/06 10:40:18;;;;;;;13.20;5.60;;;;;;;-149.78;100.00;50565.31;5030493;28;20036;-67
2021/12/06 10:42:46;;;;;;;13.23;4.95;;;;;;;-149.78;100.00;50559.47;5027870;28;20025;-67
2021/12/06 10:45:14;;;;;;;12.23;4.32;;;;;;;-149.78;100.00;50588.78;5029813;28;20522;-67
2021/12/06 10:47:40;;;;;;;10.02;4.78;;;;;;;-149.78;100.00;50602.47;5033152;28;20021;-67
2021/12/06 10:50:17;;;;;;;9.75;4.20;;;;;;;-149.78;100.00;50604.44;5030901;28;20029;-67
2021/12/06 10:52:52;;;;;;;8.48;4.15;;;;;;;-149.78;100.00;50580.97;5032611;28;20025;-68
2021/12/06 10:55:20;;;;;;;7.40;3.72;;;;;;;-149.78;100.00;50577.06;5031021;28;20581;-67
2021/12/06 10:57:48;;;;;;;6.35;3.60;;;;;;;-149.78;100.00;50584.88;5031546;28;20418;-67
2021/12/06 11:00:34;;;;;;;8.50;3.88;;;;;;;-149.78;100.00;50586.84;5027182;28;20025;-67
2021/12/06 11:03:01;;;;;;;8.05;3.50;;;;;;;-149.78;100.00;50577.06;5030556;28;20068;-67
2021/12/06 11:05:32;;;;;;;6.07;3.13;;;;;;;-149.78;100.00;50580.97;5031897;28;20040;-67
2021/12/06 11:08:16;;;;;;;7.72;3.53;;;;;;;-149.78;100.00;50608.34;5029056;28;20083;-67
2021/12/06 11:10:43;;;;;;;7.82;3.03;;;;;;;-149.78;100.00;50608.34;5027722;28;20046;-67
2021/12/06 11:13:20;;;;;;;4.35;2.75;;;;;;;-149.78;100.00;50577.06;5031705;28;20361;-67
2021/12/06 11:16:15;;;;;;;5.85;2.83;;;;;;;-149.78;100.00;50584.88;5031428;28;20508;-67
2021/12/06 11:18:50;;;;;;;6.63;2.95;;;;;;;-149.78;100.00;50569.22;5022692;28;20041;-67